Time;durP1;ratioP1;P1;durP2;ratioP2;P2;SDS_P1;SDS_P2;PMS_P1;PMS_P2;Temp;Humidity;BMP_temperature;BMP_pressure;BME280_temperature;BME280_humidity;BME280_pressure;Samples;Min_cycle;Max_cycle;Signal;HPM_P1;HPM_P2
2022/06/04 00:00:41;;;;;;;9.00;8.20;;;;;;;;;;5033448;28;21028;-76
2022/06/04 00:03:08;;;;;;;9.13;8.43;;;;;;;;;;5032975;28;20822;-76
2022/06/04 00:05:37;;;;;;;8.90;8.10;;;;;;;;;;5033488;28;20290;-77
2022/06/04 00:08:05;;;;;;;8.50;7.80;;;;;;;;;;5033375;28;20285;-77
2022/06/04 00:16:08;;;;;;;8.93;8.13;;;;;;;;;;5024917;28;20316;-76
2022/06/04 00:18:35;;;;;;;8.13;7.43;;;;;;;;;;5030183;28;20211;-77
2022/06/04 00:21:03;;;;;;;8.50;7.73;;;;;;;;;;5035960;28;20706;-76
2022/06/04 00:23:30;;;;;;;8.60;7.90;;;;;;;;;;5029210;28;22024;-76
2022/06/04 00:25:59;;;;;;;8.43;7.83;;;;;;;;;;5037032;28;20314;-77
2022/06/04 00:28:27;;;;;;;9.23;8.43;;;;;;;;;;5020347;28;20289;-76
2022/06/04 00:30:55;;;;;;;7.90;7.30;;;;;;;;;;5029819;28;20291;-76
2022/06/04 00:33:23;;;;;;;7.97;7.38;;;;;;;;;;5016028;28;20218;-76
2022/06/04 00:35:51;;;;;;;8.00;7.30;;;;;;;;;;5032308;28;20222;-76
2022/06/04 00:38:21;;;;;;;9.17;8.27;;;;;;;;;;5032595;28;20662;-75
2022/06/04 00:41:09;;;;;;;7.82;7.22;;;;;;;;;;5036586;28;20271;-76
2022/06/04 00:43:56;;;;;;;8.27;7.57;;;;;;;;;;5036703;28;20211;-76
2022/06/04 00:46:41;;;;;;;10.20;8.90;;;;;;;;;;5036548;28;20280;-76
2022/06/04 00:49:09;;;;;;;9.73;8.20;;;;;;;;;;5036578;28;20237;-79
2022/06/04 00:51:37;;;;;;;9.47;8.67;;;;;;;;;;5032359;28;20301;-75
2022/06/04 00:54:05;;;;;;;8.53;7.83;;;;;;;;;;5034767;28;20268;-77
2022/06/04 00:56:35;;;;;;;8.30;7.63;;;;;;;;;;5032388;28;20317;-77
2022/06/04 00:59:17;;;;;;;8.93;8.13;;;;;;;;;;5029705;28;20300;-76
2022/06/04 01:01:55;;;;;;;8.67;7.90;;;;;;;;;;5033709;28;21169;-77
2022/06/04 01:07:26;;;;;;;8.33;7.67;;;;;;;;;;5030586;28;20308;-76
2022/06/04 01:10:00;;;;;;;8.43;7.63;;;;;;;;;;5034353;28;20298;-76
2022/06/04 01:12:43;;;;;;;8.27;7.57;;;;;;;;;;5030164;28;20300;-74
2022/06/04 01:15:17;;;;;;;9.27;8.47;;;;;;;;;;5041535;28;20329;-77
2022/06/04 01:17:53;;;;;;;10.87;9.87;;;;;;;;;;5033455;28;21113;-75
2022/06/04 01:20:25;;;;;;;11.30;10.33;;;;;;;;;;5034545;28;20217;-78
2022/06/04 01:23:04;;;;;;;12.77;11.67;;;;;;;;;;5034478;28;20241;-75
2022/06/04 01:25:40;;;;;;;11.20;10.20;;;;;;;;;;5037274;28;20309;-75
2022/06/04 01:28:08;;;;;;;11.20;10.20;;;;;;;;;;5031596;28;20272;-79
2022/06/04 01:30:44;;;;;;;10.70;9.80;;;;;;;;;;5035031;28;20210;-77
2022/06/04 01:33:31;;;;;;;9.65;8.80;;;;;;;;;;5026169;28;20274;-75
2022/06/04 01:36:02;;;;;;;9.13;8.37;;;;;;;;;;5020390;28;20329;-76
2022/06/04 01:38:32;;;;;;;8.02;7.43;;;;;;;;;;5023308;28;20299;-77
2022/06/04 01:41:05;;;;;;;8.25;7.65;;;;;;;;;;5036422;28;20326;-76
2022/06/04 01:43:32;;;;;;;8.13;7.33;;;;;;;;;;5030388;28;21547;-76
2022/06/04 01:46:03;;;;;;;10.23;9.23;;;;;;;;;;5019720;28;20234;-76
2022/06/04 01:48:32;;;;;;;9.40;8.60;;;;;;;;;;5030892;28;20251;-76
2022/06/04 01:51:03;;;;;;;8.43;7.72;;;;;;;;;;5028987;28;20210;-76
2022/06/04 01:53:33;;;;;;;10.40;9.50;;;;;;;;;;5031223;28;22044;-77
2022/06/04 01:56:06;;;;;;;11.10;10.10;;;;;;;;;;5028211;28;20242;-76
2022/06/04 01:58:45;;;;;;;10.87;9.80;;;;;;;;;;5037351;28;20230;-76
2022/06/04 02:01:16;;;;;;;11.70;10.63;;;;;;;;;;5027599;28;20308;-76
2022/06/04 02:03:55;;;;;;;10.20;9.30;;;;;;;;;;5030895;28;20206;-78
2022/06/04 02:06:24;;;;;;;8.80;7.90;;;;;;;;;;5030656;28;20319;-76
2022/06/04 02:08:55;;;;;;;7.95;7.28;;;;;;;;;;5034599;28;20206;-77
2022/06/04 02:11:23;;;;;;;9.48;8.57;;;;;;;;;;5035211;28;20260;-77
2022/06/04 02:13:52;;;;;;;8.43;7.63;;;;;;;;;;5033052;28;20669;-77
2022/06/04 02:16:41;;;;;;;7.80;7.20;;;;;;;;;;5032053;28;20254;-77
2022/06/04 02:19:08;;;;;;;7.07;6.47;;;;;;;;;;5030608;28;20317;-76
2022/06/04 02:21:36;;;;;;;7.72;6.88;;;;;;;;;;5025957;28;20218;-75
2022/06/04 02:24:04;;;;;;;7.50;6.90;;;;;;;;;;5033539;28;20310;-76
2022/06/04 02:26:31;;;;;;;6.85;6.35;;;;;;;;;;5031129;28;20217;-76
2022/06/04 02:28:59;;;;;;;6.93;6.22;;;;;;;;;;5028410;28;20207;-75
2022/06/04 02:31:33;;;;;;;7.25;6.65;;;;;;;;;;5031042;28;20202;-77
2022/06/04 02:34:07;;;;;;;7.20;6.60;;;;;;;;;;5022898;28;20225;-77
2022/06/04 02:36:56;;;;;;;7.27;6.67;;;;;;;;;;5025126;28;20234;-75
2022/06/04 02:39:45;;;;;;;6.60;6.10;;;;;;;;;;5019585;28;21284;-75
2022/06/04 02:42:12;;;;;;;6.30;5.80;;;;;;;;;;5024227;28;20235;-77
2022/06/04 02:44:46;;;;;;;5.80;5.30;;;;;;;;;;5029662;28;20413;-76
2022/06/04 02:47:40;;;;;;;11.13;6.17;;;;;;;;;;5021399;28;20283;-75
2022/06/04 02:50:12;;;;;;;7.00;6.50;;;;;;;;;;5029613;28;20211;-75
2022/06/04 02:52:39;;;;;;;6.80;6.20;;;;;;;;;;5033114;28;20293;-77
2022/06/04 02:55:07;;;;;;;6.57;6.07;;;;;;;;;;5033315;28;20305;-77
2022/06/04 02:57:36;;;;;;;6.93;6.33;;;;;;;;;;5040836;28;20244;-77
2022/06/04 03:00:05;;;;;;;7.60;6.90;;;;;;;;;;5036918;28;20217;-77
2022/06/04 03:02:33;;;;;;;9.17;8.27;;;;;;;;;;5033371;28;20229;-75
2022/06/04 03:05:07;;;;;;;9.20;8.40;;;;;;;;;;5033655;28;20202;-77
2022/06/04 03:07:34;;;;;;;10.40;9.00;;;;;;;;;;5030567;28;20646;-77
2022/06/04 03:10:05;;;;;;;9.60;8.80;;;;;;;;;;5038251;28;20233;-76
2022/06/04 03:12:32;;;;;;;10.57;9.63;;;;;;;;;;5035513;28;20309;-78
2022/06/04 03:15:00;;;;;;;10.87;9.87;;;;;;;;;;5039872;28;20299;-76
2022/06/04 03:17:27;;;;;;;9.03;8.33;;;;;;;;;;5032193;28;20230;-77
2022/06/04 03:19:54;;;;;;;9.70;8.77;;;;;;;;;;5034129;28;20651;-76
2022/06/04 03:22:21;;;;;;;7.37;6.80;;;;;;;;;;5029802;28;20230;-75
2022/06/04 03:24:49;;;;;;;8.00;7.40;;;;;;;;;;5035702;28;20230;-76
2022/06/04 03:27:16;;;;;;;7.03;6.40;;;;;;;;;;5033350;28;20307;-77
2022/06/04 03:29:43;;;;;;;6.97;6.47;;;;;;;;;;5033114;28;20206;-77
2022/06/04 03:32:10;;;;;;;6.83;6.30;;;;;;;;;;5031527;28;20289;-76
2022/06/04 03:34:38;;;;;;;6.63;6.13;;;;;;;;;;5028448;28;20618;-78
2022/06/04 03:37:05;;;;;;;7.57;6.90;;;;;;;;;;5038456;28;20281;-77
2022/06/04 03:39:32;;;;;;;6.77;6.27;;;;;;;;;;5034164;28;20277;-75
2022/06/04 03:42:01;;;;;;;6.77;6.27;;;;;;;;;;5036384;28;20229;-76
2022/06/04 03:44:28;;;;;;;6.82;6.32;;;;;;;;;;5031103;28;20198;-76
2022/06/04 03:46:55;;;;;;;6.30;5.70;;;;;;;;;;5034912;28;20325;-76
2022/06/04 03:49:23;;;;;;;6.37;5.93;;;;;;;;;;5029078;28;20813;-77
2022/06/04 03:51:50;;;;;;;7.75;7.18;;;;;;;;;;5036167;28;21146;-76
2022/06/04 03:54:17;;;;;;;6.88;6.32;;;;;;;;;;5036017;28;20252;-76
2022/06/04 03:57:37;;;;;;;6.63;6.13;;;;;;;;;;5035148;28;20250;-76
2022/06/04 03:59:31;;;;;;;7.30;6.70;;;;;;;;;;5034361;28;20294;-76
2022/06/04 04:02:07;;;;;;;7.80;7.20;;;;;;;;;;5029751;28;20240;-77
2022/06/04 04:04:34;;;;;;;7.37;6.77;;;;;;;;;;5034196;28;22309;-78
2022/06/04 04:07:02;;;;;;;7.03;5.83;;;;;;;;;;5033985;28;20724;-76
2022/06/04 04:09:29;;;;;;;5.60;5.20;;;;;;;;;;5038650;28;20293;-77
2022/06/04 04:11:56;;;;;;;5.00;4.50;;;;;;;;;;5028836;28;20755;-77
2022/06/04 04:14:23;;;;;;;5.03;4.38;;;;;;;;;;5042534;28;20202;-75
2022/06/04 04:16:50;;;;;;;4.60;4.20;;;;;;;;;;5034641;28;20374;-75
2022/06/04 04:19:18;;;;;;;4.53;4.13;;;;;;;;;;5035566;28;20329;-77
2022/06/04 04:21:45;;;;;;;5.53;4.38;;;;;;;;;;5024316;28;20281;-76
2022/06/04 04:24:13;;;;;;;5.38;3.92;;;;;;;;;;5031869;28;20253;-77
2022/06/04 04:26:40;;;;;;;3.90;3.33;;;;;;;;;;5034307;28;20361;-77
2022/06/04 04:29:07;;;;;;;4.30;3.25;;;;;;;;;;5037057;28;20237;-76
2022/06/04 04:31:36;;;;;;;6.30;3.92;;;;;;;;;;5029648;28;20238;-77
2022/06/04 04:34:04;;;;;;;4.35;4.05;;;;;;;;;;5036918;28;20233;-77
2022/06/04 04:36:31;;;;;;;5.07;4.68;;;;;;;;;;5030374;28;20344;-78
2022/06/04 04:38:59;;;;;;;4.78;4.38;;;;;;;;;;5035199;28;20237;-77
2022/06/04 04:41:26;;;;;;;5.57;4.30;;;;;;;;;;5036554;28;20246;-76
2022/06/04 04:43:53;;;;;;;4.35;3.95;;;;;;;;;;5035732;28;20293;-76
2022/06/04 04:46:21;;;;;;;4.10;3.30;;;;;;;;;;5039341;28;20222;-77
2022/06/04 04:48:48;;;;;;;4.25;3.38;;;;;;;;;;5031535;28;20233;-76
2022/06/04 04:51:18;;;;;;;4.70;3.75;;;;;;;;;;5036621;28;20289;-75
2022/06/04 04:53:46;;;;;;;4.25;3.30;;;;;;;;;;5027927;28;20214;-75
2022/06/04 04:56:18;;;;;;;7.38;3.38;;;;;;;;;;5026905;28;20363;-76
2022/06/04 04:58:45;;;;;;;4.00;3.70;;;;;;;;;;5026594;28;20334;-78
2022/06/04 05:01:16;;;;;;;4.60;4.25;;;;;;;;;;5030920;28;20218;-78
2022/06/04 05:03:44;;;;;;;4.53;4.13;;;;;;;;;;5027255;28;20198;-77
2022/06/04 05:06:13;;;;;;;5.35;4.85;;;;;;;;;;5031008;28;20288;-76
2022/06/04 05:08:42;;;;;;;6.05;5.55;;;;;;;;;;5030176;28;20213;-77
2022/06/04 05:11:11;;;;;;;5.50;5.00;;;;;;;;;;5034416;28;20725;-76
2022/06/04 05:13:42;;;;;;;4.75;4.28;;;;;;;;;;5030331;28;20268;-76
2022/06/04 05:16:10;;;;;;;4.80;4.40;;;;;;;;;;5035054;28;20258;-76
2022/06/04 05:18:37;;;;;;;5.03;4.47;;;;;;;;;;5031672;28;20206;-76
2022/06/04 05:21:23;;;;;;;5.25;4.75;;;;;;;;;;5034492;28;20354;-76
2022/06/04 05:23:51;;;;;;;4.43;4.13;;;;;;;;;;5036732;28;20229;-77
2022/06/04 05:26:18;;;;;;;4.80;4.32;;;;;;;;;;5031013;28;20804;-78
2022/06/04 05:28:46;;;;;;;4.75;4.13;;;;;;;;;;5032958;28;21027;-76
2022/06/04 05:31:13;;;;;;;3.75;3.45;;;;;;;;;;5021958;28;20224;-76
2022/06/04 05:33:40;;;;;;;4.68;4.00;;;;;;;;;;5020641;28;20214;-77
2022/06/04 05:36:08;;;;;;;4.55;3.63;;;;;;;;;;5023921;28;20329;-80
2022/06/04 05:38:36;;;;;;;3.80;3.25;;;;;;;;;;5030372;28;20249;-79
2022/06/04 05:41:08;;;;;;;3.97;2.75;;;;;;;;;;5030200;28;20246;-78
2022/06/04 05:43:35;;;;;;;3.38;3.05;;;;;;;;;;5032801;28;20773;-76
2022/06/04 05:46:04;;;;;;;3.47;2.30;;;;;;;;;;5025544;28;20876;-79
2022/06/04 05:48:31;;;;;;;2.83;2.10;;;;;;;;;;5028403;28;20214;-77
2022/06/04 05:50:59;;;;;;;3.20;2.70;;;;;;;;;;5037981;28;20229;-78
2022/06/04 05:53:27;;;;;;;4.47;2.58;;;;;;;;;;5044436;28;20245;-78
2022/06/04 05:55:54;;;;;;;5.28;2.53;;;;;;;;;;5038672;28;20918;-79
2022/06/04 05:58:21;;;;;;;3.42;2.50;;;;;;;;;;5036433;28;20232;-77
2022/06/04 06:00:48;;;;;;;5.50;2.67;;;;;;;;;;5033400;28;20229;-77
2022/06/04 06:03:16;;;;;;;2.75;2.50;;;;;;;;;;5033422;28;20202;-77
2022/06/04 06:05:44;;;;;;;4.35;2.42;;;;;;;;;;5041835;28;20222;-78
2022/06/04 06:08:12;;;;;;;3.40;2.53;;;;;;;;;;5034095;28;20238;-78
2022/06/04 06:10:46;;;;;;;3.13;2.83;;;;;;;;;;5035624;28;20296;-78
2022/06/04 06:13:14;;;;;;;2.97;2.55;;;;;;;;;;5027886;28;20206;-79
2022/06/04 06:15:41;;;;;;;2.95;2.63;;;;;;;;;;5028267;28;20653;-79
2022/06/04 06:18:09;;;;;;;2.90;2.70;;;;;;;;;;5028801;28;20288;-78
2022/06/04 06:20:36;;;;;;;4.05;2.53;;;;;;;;;;5034363;28;20210;-78
2022/06/04 06:23:03;;;;;;;3.83;2.85;;;;;;;;;;5025677;28;20257;-75
2022/06/04 06:25:31;;;;;;;3.13;2.50;;;;;;;;;;5033210;28;20809;-81
2022/06/04 06:27:58;;;;;;;2.67;2.45;;;;;;;;;;5033314;28;20760;-79
2022/06/04 06:30:25;;;;;;;2.78;2.30;;;;;;;;;;5037156;28;20203;-77
2022/06/04 06:32:53;;;;;;;4.03;2.53;;;;;;;;;;5039329;28;20282;-80
2022/06/04 06:35:20;;;;;;;4.82;2.60;;;;;;;;;;5041751;28;20516;-78
2022/06/04 06:37:48;;;;;;;4.50;2.92;;;;;;;;;;5038681;28;20285;-79
2022/06/04 06:40:16;;;;;;;4.18;2.80;;;;;;;;;;5036526;28;20229;-78
2022/06/04 06:42:43;;;;;;;3.05;2.55;;;;;;;;;;5036480;28;20372;-77
2022/06/04 06:45:10;;;;;;;2.40;2.30;;;;;;;;;;5025830;28;20369;-76
2022/06/04 06:47:38;;;;;;;3.60;2.70;;;;;;;;;;5016730;28;20289;-77
2022/06/04 06:50:05;;;;;;;3.13;2.65;;;;;;;;;;5033683;28;20293;-79
2022/06/04 06:52:32;;;;;;;3.00;2.42;;;;;;;;;;5019719;28;20236;-76
2022/06/04 06:55:00;;;;;;;2.03;1.92;;;;;;;;;;5019945;28;20348;-77
2022/06/04 06:57:27;;;;;;;2.83;2.50;;;;;;;;;;5024637;28;20500;-77
2022/06/04 06:59:54;;;;;;;2.30;2.10;;;;;;;;;;5022881;28;20210;-78
2022/06/04 07:02:22;;;;;;;2.45;2.20;;;;;;;;;;5011034;28;20253;-77
2022/06/04 07:04:49;;;;;;;3.85;2.10;;;;;;;;;;5023824;28;20341;-77
2022/06/04 07:07:16;;;;;;;2.40;2.20;;;;;;;;;;5024884;28;20297;-78
2022/06/04 07:09:44;;;;;;;2.10;2.00;;;;;;;;;;5018057;28;20363;-77
2022/06/04 07:12:12;;;;;;;2.38;1.80;;;;;;;;;;5007526;28;20202;-78
2022/06/04 07:14:40;;;;;;;2.55;2.13;;;;;;;;;;5016835;28;20301;-79
2022/06/04 07:17:08;;;;;;;4.07;1.95;;;;;;;;;;5016764;28;20234;-78
2022/06/04 07:19:35;;;;;;;2.55;2.00;;;;;;;;;;5015483;28;20277;-77
2022/06/04 07:22:03;;;;;;;4.30;1.90;;;;;;;;;;5021551;28;20298;-78
2022/06/04 07:24:30;;;;;;;1.95;1.85;;;;;;;;;;5024896;28;20226;-80
2022/06/04 07:26:57;;;;;;;2.33;2.13;;;;;;;;;;5030667;28;20330;-78
2022/06/04 07:29:26;;;;;;;3.03;2.10;;;;;;;;;;5023121;28;20676;-77
2022/06/04 07:31:54;;;;;;;2.60;1.88;;;;;;;;;;5017668;28;20210;-78
2022/06/04 07:34:21;;;;;;;3.40;1.95;;;;;;;;;;5013798;28;20256;-78
2022/06/04 07:36:51;;;;;;;2.47;1.80;;;;;;;;;;5026692;28;20617;-76
2022/06/04 07:39:18;;;;;;;4.05;1.90;;;;;;;;;;5034734;28;20681;-80
2022/06/04 07:41:51;;;;;;;2.95;2.00;;;;;;;;;;5036381;28;20326;-78
2022/06/04 07:44:18;;;;;;;2.72;2.13;;;;;;;;;;5032399;28;20199;-80
2022/06/04 07:46:46;;;;;;;2.80;1.70;;;;;;;;;;5031092;28;20353;-79
2022/06/04 07:49:14;;;;;;;2.28;2.10;;;;;;;;;;5038910;28;20302;-79
2022/06/04 07:51:42;;;;;;;3.38;1.90;;;;;;;;;;5035170;28;20202;-79
2022/06/04 07:54:10;;;;;;;2.00;1.90;;;;;;;;;;5022233;28;20657;-79
2022/06/04 07:56:38;;;;;;;1.80;1.70;;;;;;;;;;5027682;28;20226;-78
2022/06/04 07:59:06;;;;;;;2.20;2.00;;;;;;;;;;5029850;28;20284;-78
2022/06/04 08:01:34;;;;;;;2.28;2.00;;;;;;;;;;5033640;28;20292;-78
2022/06/04 08:04:01;;;;;;;2.90;2.47;;;;;;;;;;5032258;28;20654;-78
2022/06/04 08:06:31;;;;;;;2.47;2.28;;;;;;;;;;5029349;28;20250;-78
2022/06/04 08:09:00;;;;;;;2.85;2.65;;;;;;;;;;5029536;28;20207;-80
2022/06/04 08:11:31;;;;;;;3.00;2.80;;;;;;;;;;5030393;28;20199;-77
2022/06/04 08:13:59;;;;;;;3.67;2.95;;;;;;;;;;5033373;28;20211;-80
2022/06/04 08:16:26;;;;;;;3.05;2.78;;;;;;;;;;5037467;28;20291;-77
2022/06/04 08:18:54;;;;;;;3.92;2.80;;;;;;;;;;5030457;28;20289;-79
2022/06/04 08:21:21;;;;;;;3.95;2.10;;;;;;;;;;5033138;28;20226;-77
2022/06/04 08:23:49;;;;;;;2.35;2.13;;;;;;;;;;5030844;28;20332;-77
2022/06/04 08:26:16;;;;;;;2.30;2.10;;;;;;;;;;5029412;28;20271;-78
2022/06/04 08:28:44;;;;;;;2.78;2.35;;;;;;;;;;5034695;28;20238;-78
2022/06/04 08:31:13;;;;;;;2.42;2.22;;;;;;;;;;5038112;28;20310;-77
2022/06/04 08:33:41;;;;;;;4.03;2.13;;;;;;;;;;5029339;28;20849;-80
2022/06/04 08:36:09;;;;;;;1.73;1.63;;;;;;;;;;5033844;28;20729;-77
2022/06/04 08:38:37;;;;;;;2.25;1.90;;;;;;;;;;5021386;28;20234;-80
2022/06/04 08:41:06;;;;;;;2.00;1.90;;;;;;;;;;5035206;28;20302;-78
2022/06/04 08:43:33;;;;;;;2.15;1.98;;;;;;;;;;5036817;28;20709;-78
2022/06/04 08:46:02;;;;;;;1.95;1.73;;;;;;;;;;5033819;28;20316;-77
2022/06/04 08:48:35;;;;;;;2.33;2.13;;;;;;;;;;5033076;28;20206;-78
2022/06/04 08:51:04;;;;;;;2.97;1.80;;;;;;;;;;5034259;28;20285;-77
2022/06/04 08:53:31;;;;;;;2.55;1.70;;;;;;;;;;5034654;28;20812;-78
2022/06/04 08:58:50;;;;;;;2.55;1.80;;;;;;;;;;5035407;28;20230;-78
2022/06/04 09:01:18;;;;;;;2.63;1.92;;;;;;;;;;5034061;28;20633;-79
2022/06/04 09:03:58;;;;;;;2.97;1.80;;;;;;;;;;5034107;28;20218;-78
2022/06/04 09:06:26;;;;;;;4.00;1.70;;;;;;;;;;5032629;28;20297;-78
2022/06/04 09:09:11;;;;;;;2.25;2.00;;;;;;;;;;5035843;28;20293;-77
2022/06/04 09:11:46;;;;;;;2.00;1.90;;;;;;;;;;5036144;28;20635;-76
2022/06/04 09:14:23;;;;;;;3.25;2.40;;;;;;;;;;5035095;28;20634;-77
2022/06/04 09:16:56;;;;;;;2.33;2.13;;;;;;;;;;5038238;28;20218;-78
2022/06/04 09:19:26;;;;;;;3.38;2.10;;;;;;;;;;5030630;28;20213;-77
2022/06/04 09:21:54;;;;;;;2.10;2.00;;;;;;;;;;5040445;28;20312;-77
2022/06/04 09:24:21;;;;;;;2.60;2.40;;;;;;;;;;5038454;28;20194;-79
2022/06/04 09:26:51;;;;;;;2.20;2.00;;;;;;;;;;5033599;28;20345;-76
2022/06/04 09:29:37;;;;;;;2.40;2.20;;;;;;;;;;5037990;28;20294;-75
2022/06/04 09:32:17;;;;;;;2.08;1.88;;;;;;;;;;5034929;28;20664;-77
2022/06/04 09:34:50;;;;;;;3.00;1.70;;;;;;;;;;5028287;28;20693;-78
2022/06/04 09:37:18;;;;;;;2.00;1.90;;;;;;;;;;5023966;28;20223;-77
2022/06/04 09:39:48;;;;;;;2.35;2.10;;;;;;;;;;5046060;28;20209;-78
2022/06/04 09:42:24;;;;;;;3.20;2.72;;;;;;;;;;5038028;28;20309;-80
2022/06/04 09:44:58;;;;;;;2.30;2.08;;;;;;;;;;5022736;28;20210;-77
2022/06/04 09:47:26;;;;;;;2.53;2.33;;;;;;;;;;5038932;28;20229;-76
2022/06/04 09:49:55;;;;;;;2.22;1.95;;;;;;;;;;5033476;28;20285;-77
2022/06/04 09:52:28;;;;;;;4.18;2.75;;;;;;;;;;5030150;28;20576;-76
2022/06/04 09:54:58;;;;;;;2.22;1.90;;;;;;;;;;5021571;28;20331;-77
2022/06/04 09:57:35;;;;;;;3.80;2.13;;;;;;;;;;5036738;28;20269;-79
2022/06/04 10:00:05;;;;;;;2.75;1.63;;;;;;;;;;5033474;28;20202;-77
2022/06/04 10:02:33;;;;;;;3.03;1.88;;;;;;;;;;5050072;28;20749;-77
2022/06/04 10:05:04;;;;;;;3.20;1.67;;;;;;;;;;5042833;28;20207;-79
2022/06/04 10:07:33;;;;;;;2.85;1.83;;;;;;;;;;5038185;28;20237;-77
2022/06/04 10:10:09;;;;;;;3.08;1.75;;;;;;;;;;5032527;28;20291;-76
2022/06/04 10:15:37;;;;;;;1.88;1.75;;;;;;;;;;5040840;28;20276;-76
2022/06/04 10:18:18;;;;;;;2.38;2.00;;;;;;;;;;5038078;28;20654;-74
2022/06/04 10:20:55;;;;;;;2.90;1.83;;;;;;;;;;5044742;28;20256;-76
2022/06/04 10:23:23;;;;;;;1.70;1.60;;;;;;;;;;5036318;28;20218;-78
2022/06/04 10:25:59;;;;;;;3.30;1.80;;;;;;;;;;5040555;28;20245;-77
2022/06/04 10:28:26;;;;;;;1.80;1.70;;;;;;;;;;5033472;28;20217;-75
2022/06/04 10:30:58;;;;;;;2.03;1.55;;;;;;;;;;5036539;28;20247;-77
2022/06/04 10:33:31;;;;;;;3.40;1.77;;;;;;;;;;5025359;28;20293;-78
2022/06/04 10:36:25;;;;;;;3.42;1.70;;;;;;;;;;5023504;28;20234;-76
2022/06/04 10:38:52;;;;;;;1.90;1.80;;;;;;;;;;4994286;28;20321;-75
2022/06/04 10:41:26;;;;;;;4.10;3.47;;;;;;;;;;5006893;28;20326;-75
2022/06/04 10:44:03;;;;;;;2.10;1.88;;;;;;;;;;5011791;28;20230;-75
2022/06/04 10:46:48;;;;;;;1.73;1.60;;;;;;;;;;5012069;28;20237;-75
2022/06/04 10:49:35;;;;;;;2.40;1.80;;;;;;;;;;5029601;28;20285;-74
2022/06/04 10:52:19;;;;;;;2.75;1.58;;;;;;;;;;5015791;28;22337;-77
2022/06/04 10:55:00;;;;;;;2.28;2.08;;;;;;;;;;5006656;28;20221;-74
2022/06/04 10:57:30;;;;;;;1.70;1.60;;;;;;;;;;5018187;28;20208;-76
2022/06/04 11:00:16;;;;;;;2.80;1.88;;;;;;;;;;5017677;28;20206;-73
2022/06/04 11:02:46;;;;;;;2.50;2.30;;;;;;;;;;5012812;28;20254;-76
2022/06/04 11:05:13;;;;;;;2.00;1.85;;;;;;;;;;5015325;28;20293;-75
2022/06/04 11:07:54;;;;;;;2.08;1.88;;;;;;;;;;5024532;28;20214;-76
2022/06/04 11:10:34;;;;;;;2.33;1.95;;;;;;;;;;5032454;28;20202;-75
2022/06/04 11:13:04;;;;;;;3.17;2.30;;;;;;;;;;5006378;28;20206;-74
2022/06/04 11:15:34;;;;;;;4.40;1.70;;;;;;;;;;5016418;28;21626;-73
2022/06/04 11:18:20;;;;;;;2.83;1.70;;;;;;;;;;5013042;28;20322;-76
2022/06/04 11:20:50;;;;;;;1.92;1.45;;;;;;;;;;5010473;28;20285;-74
2022/06/04 11:23:35;;;;;;;1.70;1.58;;;;;;;;;;5010837;28;20748;-75
2022/06/04 11:26:06;;;;;;;1.70;1.60;;;;;;;;;;5014856;28;20379;-77
2022/06/04 11:28:33;;;;;;;2.00;1.70;;;;;;;;;;5021311;28;20756;-76
2022/06/04 11:31:08;;;;;;;2.05;1.95;;;;;;;;;;5018831;28;20994;-75
2022/06/04 11:33:35;;;;;;;2.40;1.67;;;;;;;;;;5022997;28;20220;-75
2022/06/04 11:36:21;;;;;;;1.67;1.30;;;;;;;;;;5014115;28;20514;-74
2022/06/04 11:38:54;;;;;;;2.65;1.63;;;;;;;;;;5008137;28;20255;-75
2022/06/04 11:41:25;;;;;;;2.20;1.83;;;;;;;;;;5025982;28;20351;-76
2022/06/04 11:44:02;;;;;;;6.80;2.80;;;;;;;;;;5025011;28;21633;-76
2022/06/04 11:46:32;;;;;;;2.47;2.20;;;;;;;;;;5023443;28;20230;-74
2022/06/04 11:49:00;;;;;;;2.72;1.85;;;;;;;;;;5014338;28;20210;-74
2022/06/04 11:51:37;;;;;;;2.75;2.20;;;;;;;;;;5019047;28;20216;-74
2022/06/04 11:54:23;;;;;;;2.97;2.05;;;;;;;;;;5023950;28;20680;-77
2022/06/04 11:56:59;;;;;;;2.67;2.10;;;;;;;;;;5023546;28;20242;-73
2022/06/04 11:59:34;;;;;;;2.95;2.63;;;;;;;;;;5013946;28;20642;-74
2022/06/04 12:02:11;;;;;;;3.15;2.42;;;;;;;;;;5003494;28;20220;-76
2022/06/04 12:04:43;;;;;;;3.00;1.95;;;;;;;;;;5027149;28;20229;-74
2022/06/04 12:07:24;;;;;;;4.65;2.30;;;;;;;;;;5019668;28;20240;-75
2022/06/04 12:10:02;;;;;;;4.30;3.00;;;;;;;;;;5015388;28;20301;-76
2022/06/04 12:12:44;;;;;;;4.47;3.90;;;;;;;;;;5015931;28;20202;-77
2022/06/04 12:15:21;;;;;;;5.18;3.65;;;;;;;;;;5019137;28;20235;-75
2022/06/04 12:17:55;;;;;;;3.80;3.40;;;;;;;;;;5021575;28;20344;-77
2022/06/04 12:24:25;;;;;;;3.88;2.85;;;;;;;;;;5015974;28;20222;-74
2022/06/04 12:26:32;;;;;;;4.03;2.40;;;;;;;;;;5006034;28;20373;-74
2022/06/04 12:28:59;;;;;;;3.50;2.72;;;;;;;;;;5010845;28;21144;-76
2022/06/04 12:31:27;;;;;;;2.70;2.50;;;;;;;;;;5024400;28;20309;-74
2022/06/04 12:33:54;;;;;;;3.00;2.60;;;;;;;;;;5022917;28;20256;-76
2022/06/04 12:36:26;;;;;;;5.53;3.17;;;;;;;;;;5023288;28;20253;-76
2022/06/04 12:39:01;;;;;;;4.20;3.80;;;;;;;;;;5017136;28;20291;-77
2022/06/04 12:41:37;;;;;;;4.72;3.85;;;;;;;;;;5024353;28;20230;-76
2022/06/04 12:44:06;;;;;;;4.25;3.50;;;;;;;;;;5011349;28;20217;-76
2022/06/04 12:46:34;;;;;;;3.80;3.50;;;;;;;;;;5009531;28;20242;-75
2022/06/04 12:49:07;;;;;;;4.72;4.25;;;;;;;;;;5021015;28;20208;-76
2022/06/04 12:51:40;;;;;;;4.90;4.50;;;;;;;;;;5022382;28;20217;-75
2022/06/04 12:54:26;;;;;;;5.05;4.65;;;;;;;;;;5018888;28;20210;-77
2022/06/04 12:56:55;;;;;;;4.72;4.32;;;;;;;;;;5012381;28;21016;-76
2022/06/04 12:59:39;;;;;;;4.35;3.95;;;;;;;;;;5016630;28;20803;-74
2022/06/04 13:02:25;;;;;;;5.82;4.10;;;;;;;;;;4997048;28;20283;-76
2022/06/04 13:05:06;;;;;;;4.03;3.72;;;;;;;;;;5001695;28;20215;-75
2022/06/04 13:07:37;;;;;;;4.30;3.72;;;;;;;;;;5008458;28;20277;-76
2022/06/04 13:10:14;;;;;;;5.05;4.65;;;;;;;;;;5009178;28;20209;-75
2022/06/04 13:12:47;;;;;;;5.80;5.20;;;;;;;;;;5011104;28;20205;-74
2022/06/04 13:15:23;;;;;;;6.35;4.90;;;;;;;;;;4996404;28;20775;-75
2022/06/04 13:17:52;;;;;;;6.57;4.80;;;;;;;;;;4998318;28;20340;-75
2022/06/04 13:20:30;;;;;;;4.47;4.00;;;;;;;;;;4997138;28;20293;-77
2022/06/04 13:23:05;;;;;;;4.90;4.15;;;;;;;;;;5005441;28;20230;-74
2022/06/04 13:25:39;;;;;;;5.70;4.35;;;;;;;;;;4992840;28;21278;-76
2022/06/04 13:28:23;;;;;;;5.60;5.20;;;;;;;;;;4993205;28;20221;-74
2022/06/04 13:30:51;;;;;;;5.55;5.03;;;;;;;;;;5007286;28;20558;-75
2022/06/04 13:33:20;;;;;;;5.35;4.90;;;;;;;;;;5024994;28;20305;-74
2022/06/04 13:35:49;;;;;;;5.15;4.68;;;;;;;;;;5016073;28;20236;-74
2022/06/04 13:38:37;;;;;;;5.93;3.47;;;;;;;;;;5007997;28;20206;-76
2022/06/04 13:41:09;;;;;;;3.72;3.42;;;;;;;;;;4996947;28;20209;-73
2022/06/04 13:43:42;;;;;;;6.00;4.78;;;;;;;;;;4991293;28;20234;-74
2022/06/04 13:46:18;;;;;;;4.65;4.15;;;;;;;;;;4989948;28;20277;-75
2022/06/04 13:48:50;;;;;;;4.70;4.25;;;;;;;;;;4992425;28;20205;-77
2022/06/04 13:51:21;;;;;;;4.88;4.47;;;;;;;;;;4998630;28;20203;-75
2022/06/04 13:53:54;;;;;;;5.75;5.25;;;;;;;;;;5000461;28;20215;-75
2022/06/04 13:56:24;;;;;;;5.00;4.50;;;;;;;;;;4996420;28;20351;-74
2022/06/04 13:58:51;;;;;;;4.93;4.53;;;;;;;;;;5018188;28;20297;-75
2022/06/04 14:01:24;;;;;;;4.63;4.22;;;;;;;;;;4998917;28;20333;-74
2022/06/04 14:06:39;;;;;;;4.65;4.25;;;;;;;;;;5021714;28;20317;-76
2022/06/04 14:09:07;;;;;;;5.22;4.30;;;;;;;;;;5003488;28;20209;-77
2022/06/04 14:11:34;;;;;;;5.45;4.78;;;;;;;;;;5002703;28;23145;-75
2022/06/04 14:14:16;;;;;;;4.25;3.85;;;;;;;;;;5029041;28;20225;-75
2022/06/04 14:17:02;;;;;;;6.47;3.60;;;;;;;;;;5019064;28;20309;-75
2022/06/04 14:19:30;;;;;;;4.07;3.33;;;;;;;;;;5014774;28;20300;-77
2022/06/04 14:22:02;;;;;;;3.63;3.35;;;;;;;;;;5033237;28;20218;-77
2022/06/04 14:24:36;;;;;;;4.40;3.53;;;;;;;;;;5008057;28;20748;-76
2022/06/04 14:27:03;;;;;;;3.00;2.80;;;;;;;;;;5034858;28;20817;-77
2022/06/04 14:29:31;;;;;;;4.22;3.03;;;;;;;;;;5033883;28;20206;-75
2022/06/04 14:32:19;;;;;;;3.58;3.22;;;;;;;;;;5031422;28;20361;-76
2022/06/04 14:34:47;;;;;;;4.97;3.20;;;;;;;;;;5011891;28;20244;-76
2022/06/04 14:37:24;;;;;;;3.90;3.20;;;;;;;;;;5015741;28;20233;-76
2022/06/04 14:39:52;;;;;;;4.15;3.00;;;;;;;;;;5016150;28;20279;-78
2022/06/04 14:42:24;;;;;;;10.38;3.30;;;;;;;;;;5021024;28;20677;-75
2022/06/04 14:44:58;;;;;;;5.03;3.28;;;;;;;;;;5012804;28;20217;-76
2022/06/04 14:47:25;;;;;;;8.55;3.13;;;;;;;;;;5008763;28;20237;-75
2022/06/04 14:50:18;;;;;;;12.60;3.47;;;;;;;;;;5032787;28;20206;-77
2022/06/04 14:52:50;;;;;;;8.38;2.85;;;;;;;;;;4997702;28;20210;-75
2022/06/04 14:55:19;;;;;;;8.55;3.22;;;;;;;;;;5012836;28;20240;-75
2022/06/04 14:58:15;;;;;;;5.65;4.22;;;;;;;;;;5022258;28;20631;-76
2022/06/04 15:00:45;;;;;;;3.20;2.53;;;;;;;;;;5024341;28;20202;-75
2022/06/04 15:03:12;;;;;;;4.32;2.60;;;;;;;;;;5025622;28;20215;-75
2022/06/04 15:05:49;;;;;;;2.50;2.30;;;;;;;;;;5017486;28;20721;-74
2022/06/04 15:08:32;;;;;;;3.05;2.75;;;;;;;;;;5027322;28;20210;-75
2022/06/04 15:11:19;;;;;;;5.95;3.80;;;;;;;;;;5042252;28;20236;-76
2022/06/04 15:13:54;;;;;;;5.03;3.63;;;;;;;;;;5018429;28;20336;-75
2022/06/04 15:16:37;;;;;;;5.90;2.40;;;;;;;;;;5006208;28;20229;-74
2022/06/04 15:19:13;;;;;;;4.18;3.00;;;;;;;;;;5002140;28;20217;-76
2022/06/04 15:21:45;;;;;;;3.00;2.35;;;;;;;;;;5009339;28;20214;-76
2022/06/04 15:24:16;;;;;;;3.30;2.20;;;;;;;;;;5001303;28;20244;-75
2022/06/04 15:26:49;;;;;;;2.50;2.30;;;;;;;;;;5004009;28;20226;-74
2022/06/04 15:35:05;;;;;;;80.47;7.63;;;;;;;;;;5014512;28;20222;-76